sensor_id;sensor_type;location;lat;lon;timestamp;temperature;humidity
13856;DHT22;6998;53.608;9.958;2022-07-06T00:02:01;15.80;99.90
13856;DHT22;6998;53.608;9.958;2022-07-06T00:04:28;15.80;99.90
13856;DHT22;6998;53.608;9.958;2022-07-06T00:06:55;15.80;99.90
13856;DHT22;6998;53.608;9.958;2022-07-06T00:09:24;15.80;99.90
13856;DHT22;6998;53.608;9.958;2022-07-06T00:11:51;15.70;99.90
13856;DHT22;6998;53.608;9.958;2022-07-06T00:14:17;15.70;99.90
13856;DHT22;6998;53.608;9.958;2022-07-06T00:16:44;15.80;99.90
13856;DHT22;6998;53.608;9.958;2022-07-06T00:19:12;15.70;99.90
13856;DHT22;6998;53.608;9.958;2022-07-06T00:21:39;15.80;99.90
13856;DHT22;6998;53.608;9.958;2022-07-06T00:24:06;15.70;99.90
13856;DHT22;6998;53.608;9.958;2022-07-06T00:26:34;15.70;99.90
13856;DHT22;6998;53.608;9.958;2022-07-06T00:29:01;15.70;99.90
13856;DHT22;6998;53.608;9.958;2022-07-06T00:31:27;15.70;99.90
13856;DHT22;6998;53.608;9.958;2022-07-06T00:33:54;15.70;99.90
13856;DHT22;6998;53.608;9.958;2022-07-06T00:36:21;15.70;99.90
13856;DHT22;6998;53.608;9.958;2022-07-06T00:38:47;15.80;99.90
13856;DHT22;6998;53.608;9.958;2022-07-06T00:41:14;15.80;99.90
13856;DHT22;6998;53.608;9.958;2022-07-06T00:43:53;15.80;99.90
13856;DHT22;6998;53.608;9.958;2022-07-06T00:46:25;15.80;99.90
13856;DHT22;6998;53.608;9.958;2022-07-06T00:48:53;15.80;99.90
13856;DHT22;6998;53.608;9.958;2022-07-06T00:51:20;15.80;99.90
13856;DHT22;6998;53.608;9.958;2022-07-06T00:53:49;15.80;99.90
13856;DHT22;6998;53.608;9.958;2022-07-06T00:56:15;15.80;99.90
13856;DHT22;6998;53.608;9.958;2022-07-06T00:58:43;15.80;99.90
13856;DHT22;6998;53.608;9.958;2022-07-06T01:01:11;15.80;99.90
13856;DHT22;6998;53.608;9.958;2022-07-06T01:03:38;15.70;99.90
13856;DHT22;6998;53.608;9.958;2022-07-06T01:06:05;15.70;99.90
13856;DHT22;6998;53.608;9.958;2022-07-06T01:08:32;15.70;99.90
13856;DHT22;6998;53.608;9.958;2022-07-06T01:10:59;15.70;99.90
13856;DHT22;6998;53.608;9.958;2022-07-06T01:13:27;15.60;99.90
13856;DHT22;6998;53.608;9.958;2022-07-06T01:15:53;15.60;99.90
13856;DHT22;6998;53.608;9.958;2022-07-06T01:18:22;15.70;99.90
13856;DHT22;6998;53.608;9.958;2022-07-06T01:20:50;15.60;99.90
13856;DHT22;6998;53.608;9.958;2022-07-06T01:23:17;15.60;99.90
13856;DHT22;6998;53.608;9.958;2022-07-06T01:25:43;15.60;99.90
13856;DHT22;6998;53.608;9.958;2022-07-06T01:28:10;15.50;99.90
13856;DHT22;6998;53.608;9.958;2022-07-06T01:30:37;15.50;99.90
13856;DHT22;6998;53.608;9.958;2022-07-06T01:33:04;15.40;99.90
13856;DHT22;6998;53.608;9.958;2022-07-06T01:35:31;15.40;99.90
13856;DHT22;6998;53.608;9.958;2022-07-06T01:38:01;15.40;99.90
13856;DHT22;6998;53.608;9.958;2022-07-06T01:40:27;15.40;99.90
13856;DHT22;6998;53.608;9.958;2022-07-06T01:42:57;15.40;99.90
13856;DHT22;6998;53.608;9.958;2022-07-06T01:45:24;15.40;99.90
13856;DHT22;6998;53.608;9.958;2022-07-06T01:47:51;15.40;99.90
13856;DHT22;6998;53.608;9.958;2022-07-06T01:50:18;15.30;99.90
13856;DHT22;6998;53.608;9.958;2022-07-06T01:52:44;15.40;99.90
13856;DHT22;6998;53.608;9.958;2022-07-06T01:55:13;15.30;99.90
13856;DHT22;6998;53.608;9.958;2022-07-06T01:57:39;15.40;99.90
13856;DHT22;6998;53.608;9.958;2022-07-06T02:00:07;15.50;99.90
13856;DHT22;6998;53.608;9.958;2022-07-06T02:02:34;15.50;99.90
13856;DHT22;6998;53.608;9.958;2022-07-06T02:05:01;15.50;99.90
13856;DHT22;6998;53.608;9.958;2022-07-06T02:07:28;15.50;99.90
13856;DHT22;6998;53.608;9.958;2022-07-06T02:09:55;15.50;99.90
13856;DHT22;6998;53.608;9.958;2022-07-06T02:12:23;15.70;99.90
13856;DHT22;6998;53.608;9.958;2022-07-06T02:14:50;15.70;99.90
13856;DHT22;6998;53.608;9.958;2022-07-06T02:17:16;15.60;99.90
13856;DHT22;6998;53.608;9.958;2022-07-06T02:19:43;15.60;99.90
13856;DHT22;6998;53.608;9.958;2022-07-06T02:22:10;15.60;99.90
13856;DHT22;6998;53.608;9.958;2022-07-06T02:24:37;15.60;99.90
13856;DHT22;6998;53.608;9.958;2022-07-06T02:27:03;15.60;99.90
13856;DHT22;6998;53.608;9.958;2022-07-06T02:29:32;15.60;99.90
13856;DHT22;6998;53.608;9.958;2022-07-06T02:31:58;15.60;99.90
13856;DHT22;6998;53.608;9.958;2022-07-06T02:34:25;15.50;99.90
13856;DHT22;6998;53.608;9.958;2022-07-06T02:36:52;15.40;99.90
13856;DHT22;6998;53.608;9.958;2022-07-06T02:39:19;15.40;99.90
13856;DHT22;6998;53.608;9.958;2022-07-06T02:41:45;15.40;99.90
13856;DHT22;6998;53.608;9.958;2022-07-06T02:44:12;15.40;99.90
13856;DHT22;6998;53.608;9.958;2022-07-06T02:46:40;15.40;99.90
13856;DHT22;6998;53.608;9.958;2022-07-06T02:49:07;15.40;99.90
13856;DHT22;6998;53.608;9.958;2022-07-06T02:51:34;15.40;99.90
13856;DHT22;6998;53.608;9.958;2022-07-06T02:54:00;15.50;99.90
13856;DHT22;6998;53.608;9.958;2022-07-06T02:56:27;15.40;99.90
13856;DHT22;6998;53.608;9.958;2022-07-06T02:58:54;15.40;99.90
13856;DHT22;6998;53.608;9.958;2022-07-06T03:01:21;15.30;99.90
13856;DHT22;6998;53.608;9.958;2022-07-06T03:03:49;15.30;99.90
13856;DHT22;6998;53.608;9.958;2022-07-06T03:06:16;15.30;99.90
13856;DHT22;6998;53.608;9.958;2022-07-06T03:08:43;15.40;99.90
13856;DHT22;6998;53.608;9.958;2022-07-06T03:11:10;15.30;99.90
13856;DHT22;6998;53.608;9.958;2022-07-06T03:13:36;15.30;99.90
13856;DHT22;6998;53.608;9.958;2022-07-06T03:16:03;15.30;99.90
13856;DHT22;6998;53.608;9.958;2022-07-06T03:18:30;15.30;99.90
13856;DHT22;6998;53.608;9.958;2022-07-06T03:20:58;15.40;99.90
13856;DHT22;6998;53.608;9.958;2022-07-06T03:23:26;15.40;99.90
13856;DHT22;6998;53.608;9.958;2022-07-06T03:25:52;15.40;99.90
13856;DHT22;6998;53.608;9.958;2022-07-06T03:28:19;15.40;99.90
13856;DHT22;6998;53.608;9.958;2022-07-06T03:30:46;15.40;99.90
13856;DHT22;6998;53.608;9.958;2022-07-06T03:33:13;15.40;99.90
13856;DHT22;6998;53.608;9.958;2022-07-06T03:35:40;15.40;99.90
13856;DHT22;6998;53.608;9.958;2022-07-06T03:38:08;15.40;99.90
13856;DHT22;6998;53.608;9.958;2022-07-06T03:40:34;15.40;99.90
13856;DHT22;6998;53.608;9.958;2022-07-06T03:43:01;15.30;99.90
13856;DHT22;6998;53.608;9.958;2022-07-06T03:45:28;15.30;99.90
13856;DHT22;6998;53.608;9.958;2022-07-06T03:47:56;15.40;99.90
13856;DHT22;6998;53.608;9.958;2022-07-06T03:50:23;15.30;99.90
13856;DHT22;6998;53.608;9.958;2022-07-06T03:52:49;15.40;99.90
13856;DHT22;6998;53.608;9.958;2022-07-06T03:55:17;15.40;99.90
13856;DHT22;6998;53.608;9.958;2022-07-06T03:57:44;15.30;99.90
13856;DHT22;6998;53.608;9.958;2022-07-06T04:00:12;15.30;99.90
13856;DHT22;6998;53.608;9.958;2022-07-06T04:02:39;15.30;99.90
13856;DHT22;6998;53.608;9.958;2022-07-06T04:05:06;15.30;99.90
13856;DHT22;6998;53.608;9.958;2022-07-06T04:07:33;15.20;99.90
13856;DHT22;6998;53.608;9.958;2022-07-06T04:10:00;15.20;99.90
13856;DHT22;6998;53.608;9.958;2022-07-06T04:12:28;15.30;99.90
13856;DHT22;6998;53.608;9.958;2022-07-06T04:14:56;15.30;99.90
13856;DHT22;6998;53.608;9.958;2022-07-06T04:17:23;15.40;99.90
13856;DHT22;6998;53.608;9.958;2022-07-06T04:20:09;15.40;99.90
13856;DHT22;6998;53.608;9.958;2022-07-06T04:22:37;15.40;99.90
13856;DHT22;6998;53.608;9.958;2022-07-06T04:25:05;15.40;99.90
13856;DHT22;6998;53.608;9.958;2022-07-06T04:27:33;15.50;99.90
13856;DHT22;6998;53.608;9.958;2022-07-06T04:30:00;15.60;99.90
13856;DHT22;6998;53.608;9.958;2022-07-06T04:32:27;15.60;99.90
13856;DHT22;6998;53.608;9.958;2022-07-06T04:34:54;15.70;99.90
13856;DHT22;6998;53.608;9.958;2022-07-06T04:37:21;15.70;99.90
13856;DHT22;6998;53.608;9.958;2022-07-06T04:39:47;15.70;99.90
13856;DHT22;6998;53.608;9.958;2022-07-06T04:42:14;15.60;99.90
13856;DHT22;6998;53.608;9.958;2022-07-06T04:44:42;15.70;99.90
13856;DHT22;6998;53.608;9.958;2022-07-06T04:47:13;15.80;99.90
13856;DHT22;6998;53.608;9.958;2022-07-06T04:49:40;15.80;99.90
13856;DHT22;6998;53.608;9.958;2022-07-06T04:52:07;15.80;99.90
13856;DHT22;6998;53.608;9.958;2022-07-06T04:54:34;15.90;99.90
13856;DHT22;6998;53.608;9.958;2022-07-06T04:57:00;16.00;99.90
13856;DHT22;6998;53.608;9.958;2022-07-06T04:59:27;16.10;99.90
13856;DHT22;6998;53.608;9.958;2022-07-06T05:01:55;16.00;99.90
13856;DHT22;6998;53.608;9.958;2022-07-06T05:04:22;16.00;99.90
13856;DHT22;6998;53.608;9.958;2022-07-06T05:06:50;16.00;99.90
13856;DHT22;6998;53.608;9.958;2022-07-06T05:09:17;16.10;99.90
13856;DHT22;6998;53.608;9.958;2022-07-06T05:11:44;16.00;99.90
13856;DHT22;6998;53.608;9.958;2022-07-06T05:14:11;16.00;99.90
13856;DHT22;6998;53.608;9.958;2022-07-06T05:16:37;16.00;99.90
13856;DHT22;6998;53.608;9.958;2022-07-06T05:19:06;16.00;99.90
13856;DHT22;6998;53.608;9.958;2022-07-06T05:21:32;16.00;99.90
13856;DHT22;6998;53.608;9.958;2022-07-06T05:23:59;16.10;99.90
13856;DHT22;6998;53.608;9.958;2022-07-06T05:26:26;16.20;99.90
13856;DHT22;6998;53.608;9.958;2022-07-06T05:28:53;16.20;99.90
13856;DHT22;6998;53.608;9.958;2022-07-06T05:31:20;16.20;99.90
13856;DHT22;6998;53.608;9.958;2022-07-06T05:33:46;16.20;99.90
13856;DHT22;6998;53.608;9.958;2022-07-06T05:36:14;16.20;99.90
13856;DHT22;6998;53.608;9.958;2022-07-06T05:38:43;16.20;99.90
13856;DHT22;6998;53.608;9.958;2022-07-06T05:41:10;16.30;99.90
13856;DHT22;6998;53.608;9.958;2022-07-06T05:43:40;16.30;99.90
13856;DHT22;6998;53.608;9.958;2022-07-06T05:46:07;16.40;99.90
13856;DHT22;6998;53.608;9.958;2022-07-06T05:48:34;16.40;99.90
13856;DHT22;6998;53.608;9.958;2022-07-06T05:51:19;16.30;99.90
13856;DHT22;6998;53.608;9.958;2022-07-06T05:53:46;16.30;99.90
13856;DHT22;6998;53.608;9.958;2022-07-06T05:56:13;16.20;99.90
13856;DHT22;6998;53.608;9.958;2022-07-06T05:58:40;16.10;99.90
13856;DHT22;6998;53.608;9.958;2022-07-06T06:01:07;16.10;99.90
13856;DHT22;6998;53.608;9.958;2022-07-06T06:03:34;16.10;99.90
13856;DHT22;6998;53.608;9.958;2022-07-06T06:06:01;16.10;99.90
13856;DHT22;6998;53.608;9.958;2022-07-06T06:08:29;16.20;99.90
13856;DHT22;6998;53.608;9.958;2022-07-06T06:10:56;16.20;99.90
13856;DHT22;6998;53.608;9.958;2022-07-06T06:13:23;16.30;99.90
13856;DHT22;6998;53.608;9.958;2022-07-06T06:15:49;16.40;99.90
13856;DHT22;6998;53.608;9.958;2022-07-06T06:18:16;16.50;99.90
13856;DHT22;6998;53.608;9.958;2022-07-06T06:20:44;16.50;99.90
13856;DHT22;6998;53.608;9.958;2022-07-06T06:23:11;16.60;99.90
13856;DHT22;6998;53.608;9.958;2022-07-06T06:25:39;16.70;99.90
13856;DHT22;6998;53.608;9.958;2022-07-06T06:28:07;16.60;99.90
13856;DHT22;6998;53.608;9.958;2022-07-06T06:30:35;16.80;99.90
13856;DHT22;6998;53.608;9.958;2022-07-06T06:33:07;16.90;99.90
13856;DHT22;6998;53.608;9.958;2022-07-06T06:35:33;16.90;99.90
13856;DHT22;6998;53.608;9.958;2022-07-06T06:38:00;17.00;99.90
13856;DHT22;6998;53.608;9.958;2022-07-06T06:40:27;17.20;99.90
13856;DHT22;6998;53.608;9.958;2022-07-06T06:42:55;17.30;99.90
13856;DHT22;6998;53.608;9.958;2022-07-06T06:45:22;17.50;99.90
13856;DHT22;6998;53.608;9.958;2022-07-06T06:47:49;17.60;99.90
13856;DHT22;6998;53.608;9.958;2022-07-06T06:50:15;17.70;99.90
13856;DHT22;6998;53.608;9.958;2022-07-06T06:52:50;17.70;99.90
13856;DHT22;6998;53.608;9.958;2022-07-06T06:55:17;17.80;99.90
13856;DHT22;6998;53.608;9.958;2022-07-06T06:57:44;17.80;99.90
13856;DHT22;6998;53.608;9.958;2022-07-06T07:00:13;17.90;99.90
13856;DHT22;6998;53.608;9.958;2022-07-06T07:02:41;17.80;99.90
13856;DHT22;6998;53.608;9.958;2022-07-06T07:05:08;17.80;99.90
13856;DHT22;6998;53.608;9.958;2022-07-06T07:07:35;17.80;99.90
13856;DHT22;6998;53.608;9.958;2022-07-06T07:10:03;17.90;99.90
13856;DHT22;6998;53.608;9.958;2022-07-06T07:12:32;17.90;99.90
13856;DHT22;6998;53.608;9.958;2022-07-06T07:14:59;17.90;99.90
13856;DHT22;6998;53.608;9.958;2022-07-06T07:17:27;18.10;99.90
13856;DHT22;6998;53.608;9.958;2022-07-06T07:19:54;18.10;99.90
13856;DHT22;6998;53.608;9.958;2022-07-06T07:22:22;18.10;99.90
13856;DHT22;6998;53.608;9.958;2022-07-06T07:24:49;18.20;99.90
13856;DHT22;6998;53.608;9.958;2022-07-06T07:27:16;18.20;99.90
13856;DHT22;6998;53.608;9.958;2022-07-06T07:29:43;18.30;99.90
13856;DHT22;6998;53.608;9.958;2022-07-06T07:32:10;18.30;99.90
13856;DHT22;6998;53.608;9.958;2022-07-06T07:34:38;18.20;99.90
13856;DHT22;6998;53.608;9.958;2022-07-06T07:37:05;18.10;99.90
13856;DHT22;6998;53.608;9.958;2022-07-06T07:39:31;18.10;99.90
13856;DHT22;6998;53.608;9.958;2022-07-06T07:41:58;18.10;99.90
13856;DHT22;6998;53.608;9.958;2022-07-06T07:44:25;18.10;99.90
13856;DHT22;6998;53.608;9.958;2022-07-06T07:46:53;17.80;99.90
13856;DHT22;6998;53.608;9.958;2022-07-06T07:49:20;17.80;99.90
13856;DHT22;6998;53.608;9.958;2022-07-06T07:51:48;18.00;99.90
13856;DHT22;6998;53.608;9.958;2022-07-06T07:54:15;18.00;99.90
13856;DHT22;6998;53.608;9.958;2022-07-06T07:56:42;18.20;99.90
13856;DHT22;6998;53.608;9.958;2022-07-06T07:59:09;18.40;99.90
13856;DHT22;6998;53.608;9.958;2022-07-06T08:01:36;18.50;99.90
13856;DHT22;6998;53.608;9.958;2022-07-06T08:04:03;18.40;99.90
13856;DHT22;6998;53.608;9.958;2022-07-06T08:06:30;18.40;99.90
13856;DHT22;6998;53.608;9.958;2022-07-06T08:08:58;18.50;99.90
13856;DHT22;6998;53.608;9.958;2022-07-06T08:11:25;18.60;99.90
13856;DHT22;6998;53.608;9.958;2022-07-06T08:13:54;19.00;99.90
13856;DHT22;6998;53.608;9.958;2022-07-06T08:16:21;19.40;99.90
13856;DHT22;6998;53.608;9.958;2022-07-06T08:18:47;19.50;99.90
13856;DHT22;6998;53.608;9.958;2022-07-06T08:21:14;19.50;99.90
13856;DHT22;6998;53.608;9.958;2022-07-06T08:23:41;19.20;99.90
13856;DHT22;6998;53.608;9.958;2022-07-06T08:26:12;19.00;99.90
13856;DHT22;6998;53.608;9.958;2022-07-06T08:28:39;18.90;99.90
13856;DHT22;6998;53.608;9.958;2022-07-06T08:31:06;18.60;99.90
13856;DHT22;6998;53.608;9.958;2022-07-06T08:33:33;18.50;99.90
13856;DHT22;6998;53.608;9.958;2022-07-06T08:35:59;18.40;99.90
13856;DHT22;6998;53.608;9.958;2022-07-06T08:38:26;18.30;99.90
13856;DHT22;6998;53.608;9.958;2022-07-06T08:40:53;18.30;99.90
13856;DHT22;6998;53.608;9.958;2022-07-06T08:43:22;18.30;99.90
13856;DHT22;6998;53.608;9.958;2022-07-06T08:45:50;18.40;99.90
13856;DHT22;6998;53.608;9.958;2022-07-06T08:48:22;18.50;99.90
13856;DHT22;6998;53.608;9.958;2022-07-06T08:50:49;18.50;99.90
13856;DHT22;6998;53.608;9.958;2022-07-06T08:53:17;18.40;99.90
13856;DHT22;6998;53.608;9.958;2022-07-06T08:55:44;18.30;99.90
13856;DHT22;6998;53.608;9.958;2022-07-06T08:58:11;18.30;99.90
13856;DHT22;6998;53.608;9.958;2022-07-06T09:00:40;18.40;99.90
13856;DHT22;6998;53.608;9.958;2022-07-06T09:03:07;18.40;99.90
13856;DHT22;6998;53.608;9.958;2022-07-06T09:05:40;18.40;99.90
13856;DHT22;6998;53.608;9.958;2022-07-06T09:08:06;18.40;99.90
13856;DHT22;6998;53.608;9.958;2022-07-06T09:10:35;18.50;99.90
13856;DHT22;6998;53.608;9.958;2022-07-06T09:13:04;18.80;99.90
13856;DHT22;6998;53.608;9.958;2022-07-06T09:15:32;19.10;99.90
13856;DHT22;6998;53.608;9.958;2022-07-06T09:18:00;19.20;99.90
13856;DHT22;6998;53.608;9.958;2022-07-06T09:20:27;19.30;99.90
13856;DHT22;6998;53.608;9.958;2022-07-06T09:22:58;19.40;99.90
13856;DHT22;6998;53.608;9.958;2022-07-06T09:25:26;19.50;99.90
13856;DHT22;6998;53.608;9.958;2022-07-06T09:27:53;19.70;99.90
13856;DHT22;6998;53.608;9.958;2022-07-06T09:30:21;19.70;99.90
13856;DHT22;6998;53.608;9.958;2022-07-06T09:32:51;19.90;99.90
13856;DHT22;6998;53.608;9.958;2022-07-06T09:35:26;20.10;99.90
13856;DHT22;6998;53.608;9.958;2022-07-06T09:38:01;20.10;99.90
13856;DHT22;6998;53.608;9.958;2022-07-06T09:40:29;20.30;99.90
13856;DHT22;6998;53.608;9.958;2022-07-06T09:43:14;20.60;99.90
13856;DHT22;6998;53.608;9.958;2022-07-06T09:45:43;20.80;99.90
13856;DHT22;6998;53.608;9.958;2022-07-06T09:48:11;20.80;99.90
13856;DHT22;6998;53.608;9.958;2022-07-06T09:50:44;20.80;99.90
13856;DHT22;6998;53.608;9.958;2022-07-06T09:53:12;20.80;99.90
13856;DHT22;6998;53.608;9.958;2022-07-06T09:55:43;20.90;99.90
13856;DHT22;6998;53.608;9.958;2022-07-06T09:58:10;21.00;99.90
13856;DHT22;6998;53.608;9.958;2022-07-06T10:00:36;21.30;99.90
13856;DHT22;6998;53.608;9.958;2022-07-06T10:03:04;21.70;99.90
13856;DHT22;6998;53.608;9.958;2022-07-06T10:05:32;22.00;99.90
13856;DHT22;6998;53.608;9.958;2022-07-06T10:08:01;22.10;99.90
13856;DHT22;6998;53.608;9.958;2022-07-06T10:10:31;22.00;99.90
13856;DHT22;6998;53.608;9.958;2022-07-06T10:13:02;21.40;99.90
13856;DHT22;6998;53.608;9.958;2022-07-06T10:15:32;20.50;99.90
13856;DHT22;6998;53.608;9.958;2022-07-06T10:18:00;19.80;99.90
13856;DHT22;6998;53.608;9.958;2022-07-06T10:20:28;19.20;99.90
13856;DHT22;6998;53.608;9.958;2022-07-06T10:22:58;18.80;99.90
13856;DHT22;6998;53.608;9.958;2022-07-06T10:25:29;18.40;99.90
13856;DHT22;6998;53.608;9.958;2022-07-06T10:27:56;18.00;99.90
13856;DHT22;6998;53.608;9.958;2022-07-06T10:30:24;17.70;99.90
13856;DHT22;6998;53.608;9.958;2022-07-06T10:32:52;17.60;99.90
13856;DHT22;6998;53.608;9.958;2022-07-06T10:35:19;17.30;99.90
13856;DHT22;6998;53.608;9.958;2022-07-06T10:38:02;17.20;99.90
13856;DHT22;6998;53.608;9.958;2022-07-06T10:40:33;17.10;99.90
13856;DHT22;6998;53.608;9.958;2022-07-06T10:43:18;17.20;99.90
13856;DHT22;6998;53.608;9.958;2022-07-06T10:45:51;17.30;99.90
13856;DHT22;6998;53.608;9.958;2022-07-06T10:48:21;17.50;99.90
13856;DHT22;6998;53.608;9.958;2022-07-06T10:50:52;17.70;99.90
13856;DHT22;6998;53.608;9.958;2022-07-06T10:53:22;17.90;99.90
13856;DHT22;6998;53.608;9.958;2022-07-06T10:55:52;18.10;99.90
13856;DHT22;6998;53.608;9.958;2022-07-06T10:58:48;18.20;99.90
13856;DHT22;6998;53.608;9.958;2022-07-06T11:01:18;18.40;99.90
13856;DHT22;6998;53.608;9.958;2022-07-06T11:03:45;18.50;99.90
13856;DHT22;6998;53.608;9.958;2022-07-06T11:06:14;18.70;99.90
13856;DHT22;6998;53.608;9.958;2022-07-06T11:08:46;18.70;99.90
13856;DHT22;6998;53.608;9.958;2022-07-06T11:11:16;18.90;99.90
13856;DHT22;6998;53.608;9.958;2022-07-06T11:13:47;19.00;99.90
13856;DHT22;6998;53.608;9.958;2022-07-06T11:16:16;19.30;99.90
13856;DHT22;6998;53.608;9.958;2022-07-06T11:18:47;19.60;99.90
13856;DHT22;6998;53.608;9.958;2022-07-06T11:21:18;19.90;99.90
13856;DHT22;6998;53.608;9.958;2022-07-06T11:23:47;20.00;99.90
13856;DHT22;6998;53.608;9.958;2022-07-06T11:26:16;20.20;99.90
13856;DHT22;6998;53.608;9.958;2022-07-06T11:28:46;20.70;99.90
13856;DHT22;6998;53.608;9.958;2022-07-06T11:31:14;20.90;99.90
13856;DHT22;6998;53.608;9.958;2022-07-06T11:33:45;20.80;99.90
13856;DHT22;6998;53.608;9.958;2022-07-06T11:36:13;20.70;99.90
13856;DHT22;6998;53.608;9.958;2022-07-06T11:38:40;20.50;99.90
13856;DHT22;6998;53.608;9.958;2022-07-06T11:41:07;20.20;99.90
13856;DHT22;6998;53.608;9.958;2022-07-06T11:43:35;20.10;99.90
13856;DHT22;6998;53.608;9.958;2022-07-06T11:46:03;19.70;99.90
13856;DHT22;6998;53.608;9.958;2022-07-06T11:48:29;19.40;99.90
13856;DHT22;6998;53.608;9.958;2022-07-06T11:50:58;19.60;99.90
13856;DHT22;6998;53.608;9.958;2022-07-06T11:53:25;19.90;99.90
13856;DHT22;6998;53.608;9.958;2022-07-06T11:55:52;20.30;99.90
13856;DHT22;6998;53.608;9.958;2022-07-06T11:58:21;20.70;99.90
13856;DHT22;6998;53.608;9.958;2022-07-06T12:01:05;20.80;99.90
13856;DHT22;6998;53.608;9.958;2022-07-06T12:03:32;20.70;99.90
13856;DHT22;6998;53.608;9.958;2022-07-06T12:06:00;20.70;99.90
13856;DHT22;6998;53.608;9.958;2022-07-06T12:08:27;20.80;99.90
13856;DHT22;6998;53.608;9.958;2022-07-06T12:10:54;21.00;99.90
13856;DHT22;6998;53.608;9.958;2022-07-06T12:13:22;21.30;99.90
13856;DHT22;6998;53.608;9.958;2022-07-06T12:15:49;21.70;99.90
13856;DHT22;6998;53.608;9.958;2022-07-06T12:18:17;21.70;99.90
13856;DHT22;6998;53.608;9.958;2022-07-06T12:20:44;22.20;99.90
13856;DHT22;6998;53.608;9.958;2022-07-06T12:23:11;22.30;99.90
13856;DHT22;6998;53.608;9.958;2022-07-06T12:25:38;22.60;99.90
13856;DHT22;6998;53.608;9.958;2022-07-06T12:28:05;22.90;99.90
13856;DHT22;6998;53.608;9.958;2022-07-06T12:30:32;22.90;99.90
13856;DHT22;6998;53.608;9.958;2022-07-06T12:33:12;22.70;99.90
13856;DHT22;6998;53.608;9.958;2022-07-06T12:35:42;22.30;99.90
13856;DHT22;6998;53.608;9.958;2022-07-06T12:38:08;22.20;99.90
13856;DHT22;6998;53.608;9.958;2022-07-06T12:40:36;22.00;99.90
13856;DHT22;6998;53.608;9.958;2022-07-06T12:43:03;21.90;99.90
13856;DHT22;6998;53.608;9.958;2022-07-06T12:45:31;22.00;99.90
13856;DHT22;6998;53.608;9.958;2022-07-06T12:47:58;22.30;99.90
13856;DHT22;6998;53.608;9.958;2022-07-06T12:50:31;22.50;99.90
13856;DHT22;6998;53.608;9.958;2022-07-06T12:53:03;22.40;99.90
13856;DHT22;6998;53.608;9.958;2022-07-06T12:55:30;22.30;99.90
13856;DHT22;6998;53.608;9.958;2022-07-06T12:57:59;22.10;99.90
13856;DHT22;6998;53.608;9.958;2022-07-06T13:00:26;21.90;99.90
13856;DHT22;6998;53.608;9.958;2022-07-06T13:02:53;21.70;99.90
13856;DHT22;6998;53.608;9.958;2022-07-06T13:05:25;21.60;99.90
13856;DHT22;6998;53.608;9.958;2022-07-06T13:07:54;21.70;99.90
13856;DHT22;6998;53.608;9.958;2022-07-06T13:10:24;21.90;99.90
13856;DHT22;6998;53.608;9.958;2022-07-06T13:12:51;22.00;99.90
13856;DHT22;6998;53.608;9.958;2022-07-06T13:15:17;22.00;99.90
13856;DHT22;6998;53.608;9.958;2022-07-06T13:17:44;21.80;99.90
13856;DHT22;6998;53.608;9.958;2022-07-06T13:20:12;21.90;99.90
13856;DHT22;6998;53.608;9.958;2022-07-06T13:22:39;22.40;99.90
13856;DHT22;6998;53.608;9.958;2022-07-06T13:25:07;22.60;99.90
13856;DHT22;6998;53.608;9.958;2022-07-06T13:27:35;22.80;99.90
13856;DHT22;6998;53.608;9.958;2022-07-06T13:30:02;22.90;99.90
13856;DHT22;6998;53.608;9.958;2022-07-06T13:32:29;23.10;99.90
13856;DHT22;6998;53.608;9.958;2022-07-06T13:34:56;23.10;99.90
13856;DHT22;6998;53.608;9.958;2022-07-06T13:37:22;23.30;99.90
13856;DHT22;6998;53.608;9.958;2022-07-06T13:39:49;23.30;99.90
13856;DHT22;6998;53.608;9.958;2022-07-06T13:42:16;23.50;99.90
13856;DHT22;6998;53.608;9.958;2022-07-06T13:44:44;23.80;99.90
13856;DHT22;6998;53.608;9.958;2022-07-06T13:47:11;23.90;99.90
13856;DHT22;6998;53.608;9.958;2022-07-06T13:49:37;23.90;99.90
13856;DHT22;6998;53.608;9.958;2022-07-06T13:52:05;23.80;99.90
13856;DHT22;6998;53.608;9.958;2022-07-06T13:54:32;23.30;99.90
13856;DHT22;6998;53.608;9.958;2022-07-06T13:57:02;23.30;99.90
13856;DHT22;6998;53.608;9.958;2022-07-06T13:59:29;23.30;99.90
13856;DHT22;6998;53.608;9.958;2022-07-06T14:01:57;23.50;99.90
13856;DHT22;6998;53.608;9.958;2022-07-06T14:04:24;23.70;99.90
13856;DHT22;6998;53.608;9.958;2022-07-06T14:06:51;23.80;99.90
13856;DHT22;6998;53.608;9.958;2022-07-06T14:09:18;23.60;99.90
13856;DHT22;6998;53.608;9.958;2022-07-06T14:11:45;23.40;99.90
13856;DHT22;6998;53.608;9.958;2022-07-06T14:14:11;23.50;99.90
13856;DHT22;6998;53.608;9.958;2022-07-06T14:16:38;23.50;99.90
13856;DHT22;6998;53.608;9.958;2022-07-06T14:19:07;23.10;99.90
13856;DHT22;6998;53.608;9.958;2022-07-06T14:21:33;22.80;99.90
13856;DHT22;6998;53.608;9.958;2022-07-06T14:24:00;23.10;99.90
13856;DHT22;6998;53.608;9.958;2022-07-06T14:26:27;23.10;99.90
13856;DHT22;6998;53.608;9.958;2022-07-06T14:28:54;23.00;99.90
13856;DHT22;6998;53.608;9.958;2022-07-06T14:31:20;22.80;99.90
13856;DHT22;6998;53.608;9.958;2022-07-06T14:33:47;22.50;99.90
13856;DHT22;6998;53.608;9.958;2022-07-06T14:36:16;22.30;99.90
13856;DHT22;6998;53.608;9.958;2022-07-06T14:38:42;22.20;99.90
13856;DHT22;6998;53.608;9.958;2022-07-06T14:41:09;22.10;99.90
13856;DHT22;6998;53.608;9.958;2022-07-06T14:43:36;22.00;99.90
13856;DHT22;6998;53.608;9.958;2022-07-06T14:46:02;22.00;99.90
13856;DHT22;6998;53.608;9.958;2022-07-06T14:48:29;22.10;99.90
13856;DHT22;6998;53.608;9.958;2022-07-06T14:50:56;22.30;99.90
13856;DHT22;6998;53.608;9.958;2022-07-06T14:53:25;22.50;99.90
13856;DHT22;6998;53.608;9.958;2022-07-06T14:55:52;22.60;99.90
13856;DHT22;6998;53.608;9.958;2022-07-06T14:58:19;22.80;99.90
13856;DHT22;6998;53.608;9.958;2022-07-06T15:00:48;22.90;99.90
13856;DHT22;6998;53.608;9.958;2022-07-06T15:03:14;22.80;99.90
13856;DHT22;6998;53.608;9.958;2022-07-06T15:05:41;22.90;99.90
13856;DHT22;6998;53.608;9.958;2022-07-06T15:08:11;23.00;99.90
13856;DHT22;6998;53.608;9.958;2022-07-06T15:10:41;22.90;99.90
13856;DHT22;6998;53.608;9.958;2022-07-06T15:13:08;23.00;99.90
13856;DHT22;6998;53.608;9.958;2022-07-06T15:15:35;22.80;99.90
13856;DHT22;6998;53.608;9.958;2022-07-06T15:18:02;22.70;99.90
13856;DHT22;6998;53.608;9.958;2022-07-06T15:20:29;22.50;99.90
13856;DHT22;6998;53.608;9.958;2022-07-06T15:22:56;22.40;99.90
13856;DHT22;6998;53.608;9.958;2022-07-06T15:25:23;22.30;99.90
13856;DHT22;6998;53.608;9.958;2022-07-06T15:27:51;22.20;99.90
13856;DHT22;6998;53.608;9.958;2022-07-06T15:30:18;22.20;99.90
13856;DHT22;6998;53.608;9.958;2022-07-06T15:32:45;21.80;99.90
13856;DHT22;6998;53.608;9.958;2022-07-06T15:35:12;21.60;99.90
13856;DHT22;6998;53.608;9.958;2022-07-06T15:37:39;21.50;99.90
13856;DHT22;6998;53.608;9.958;2022-07-06T15:40:07;21.40;99.90
13856;DHT22;6998;53.608;9.958;2022-07-06T15:42:37;21.50;99.90
13856;DHT22;6998;53.608;9.958;2022-07-06T15:45:07;21.60;99.90
13856;DHT22;6998;53.608;9.958;2022-07-06T15:47:34;21.60;99.90
13856;DHT22;6998;53.608;9.958;2022-07-06T15:50:01;21.70;99.90